createdAt,value
2023-03-06T00:00:15.854Z,1.3
2023-03-06T00:01:28.668Z,1.3
2023-03-06T00:02:37.430Z,1.3
2023-03-06T00:03:44.584Z,1.3
2023-03-06T00:04:51.696Z,1.3
2023-03-06T00:06:01.311Z,1.3
2023-03-06T00:07:10.902Z,1.3
2023-03-06T00:08:17.799Z,1.4
2023-03-06T00:09:25.846Z,1.4
2023-03-06T00:10:37.338Z,1.4
2023-03-06T00:11:47.836Z,1.4
2023-03-06T00:12:54.973Z,1.3
2023-03-06T00:14:07.786Z,1.3
2023-03-06T00:15:18.006Z,1.3
2023-03-06T00:16:28.781Z,1.3
2023-03-06T00:17:41.244Z,1.2
2023-03-06T00:18:48.230Z,1.2
2023-03-06T00:19:56.108Z,1.2
2023-03-06T00:21:06.612Z,1.2
2023-03-06T00:22:14.271Z,1.1
2023-03-06T00:23:22.749Z,1.2
2023-03-06T00:24:29.739Z,1.2
2023-03-06T00:25:36.688Z,1
2023-03-06T00:26:48.682Z,1
2023-03-06T00:27:56.288Z,1
2023-03-06T00:29:03.255Z,1
2023-03-06T00:30:14.995Z,1
2023-03-06T00:31:22.413Z,1
2023-03-06T00:32:29.478Z,1.1
2023-03-06T00:33:36.437Z,1
2023-03-06T00:34:43.470Z,1.1
2023-03-06T00:35:54.449Z,1.1
2023-03-06T00:37:01.404Z,1.1
2023-03-06T00:38:09.145Z,1.2
2023-03-06T00:39:16.205Z,1.2
2023-03-06T00:40:23.201Z,1.2
2023-03-06T00:41:30.172Z,1.2
2023-03-06T00:42:37.399Z,1.1
2023-03-06T00:43:45.195Z,0.8
2023-03-06T00:44:53.980Z,0.8
2023-03-06T00:46:01.020Z,0.9
2023-03-06T00:47:08.336Z,0.8
2023-03-06T00:48:16.831Z,0.8
2023-03-06T00:49:23.757Z,0.9
2023-03-06T00:50:36.052Z,1
2023-03-06T00:51:46.516Z,0.9
2023-03-06T00:52:56.807Z,0.9
2023-03-06T00:54:03.911Z,1
2023-03-06T00:55:14.207Z,1
2023-03-06T00:56:21.289Z,0.9
2023-03-06T00:57:34.007Z,0.8
2023-03-06T00:58:40.863Z,0.8
2023-03-06T00:59:47.994Z,0.6
2023-03-06T01:00:55.836Z,0.4
2023-03-06T01:02:02.899Z,0.3
2023-03-06T01:03:10.684Z,0.3
2023-03-06T01:04:17.590Z,0.5
2023-03-06T01:05:26.126Z,0.5
2023-03-06T01:06:34.012Z,0.5
2023-03-06T01:07:41.905Z,0.3
2023-03-06T01:08:48.825Z,0.5
2023-03-06T01:09:56.760Z,0.5
2023-03-06T01:11:03.732Z,0.6
2023-03-06T01:12:14.979Z,0.7
2023-03-06T01:13:23.920Z,0.6
2023-03-06T01:14:30.917Z,0.7
2023-03-06T01:15:38.724Z,0.7
2023-03-06T01:16:46.690Z,0.7
2023-03-06T01:17:54.434Z,0.8
2023-03-06T01:19:01.367Z,0.8
2023-03-06T01:20:08.304Z,0.8
2023-03-06T01:21:18.106Z,0.8
2023-03-06T01:22:25.030Z,0.9
2023-03-06T01:23:33.561Z,0.8
2023-03-06T01:24:40.690Z,0.7
2023-03-06T01:25:48.574Z,0.8
2023-03-06T01:26:55.617Z,0.9
2023-03-06T01:28:05.516Z,0.8
2023-03-06T01:29:12.490Z,0.8
2023-03-06T01:30:19.810Z,0.9
2023-03-06T01:31:26.875Z,0.7
2023-03-06T01:32:33.911Z,0.7
2023-03-06T01:33:41.863Z,0.7
2023-03-06T01:34:51.583Z,0.7
2023-03-06T01:36:03.592Z,0.7
2023-03-06T01:37:10.854Z,0.7
2023-03-06T01:38:18.559Z,0.6
2023-03-06T01:39:25.473Z,0.7
2023-03-06T01:40:36.093Z,0.7
2023-03-06T01:41:46.840Z,0.7
2023-03-06T01:42:54.154Z,0.7
2023-03-06T01:44:02.179Z,0.8
2023-03-06T01:45:09.194Z,0.7
2023-03-06T01:46:16.329Z,0.6
2023-03-06T01:47:33.341Z,0.7
2023-03-06T01:48:40.319Z,0.7
2023-03-06T01:49:47.311Z,0.7
2023-03-06T01:50:55.348Z,0.7
2023-03-06T01:52:02.387Z,0.7
2023-03-06T01:53:09.363Z,0.8
2023-03-06T01:54:16.355Z,0.7
2023-03-06T01:55:28.639Z,0.8
2023-03-06T01:56:40.877Z,0.9
2023-03-06T01:57:48.515Z,0.9
2023-03-06T01:58:55.564Z,1
2023-03-06T02:00:06.086Z,0.8
2023-03-06T02:01:13.332Z,0.8
2023-03-06T02:02:20.313Z,0.8
2023-03-06T02:03:28.484Z,0.8
2023-03-06T02:04:36.828Z,0.9
2023-03-06T02:05:44.082Z,0.9
2023-03-06T02:06:51.623Z,0.9
2023-03-06T02:07:58.527Z,0.8
2023-03-06T02:09:07.354Z,0.9
2023-03-06T02:10:14.989Z,0.9
2023-03-06T02:11:21.960Z,0.9
2023-03-06T02:12:28.938Z,1
2023-03-06T02:13:40.069Z,1
2023-03-06T02:14:47.538Z,1.1
2023-03-06T02:15:54.473Z,1.1
2023-03-06T02:17:02.603Z,1.1
2023-03-06T02:18:09.591Z,1.1
2023-03-06T02:19:16.529Z,1.2
2023-03-06T02:20:35.850Z,1.1
2023-03-06T02:21:44.733Z,1.2
2023-03-06T02:22:53.002Z,1.2
2023-03-06T02:23:59.908Z,1.2
2023-03-06T02:25:15.259Z,1.2
2023-03-06T02:26:32.703Z,1.2
2023-03-06T02:27:42.560Z,1.1
2023-03-06T02:28:50.250Z,1.2
2023-03-06T02:29:57.268Z,1.1
2023-03-06T02:31:04.254Z,1.2
2023-03-06T02:32:13.954Z,1.2
2023-03-06T02:33:24.554Z,1.2
2023-03-06T02:34:34.703Z,1.2
2023-03-06T02:35:41.659Z,1.1
2023-03-06T02:36:53.652Z,1.1
2023-03-06T02:38:05.704Z,1
2023-03-06T02:39:13.991Z,1.1
2023-03-06T02:40:25.903Z,1.1
2023-03-06T02:41:34.931Z,1.1
2023-03-06T02:42:42.812Z,1.2
2023-03-06T02:43:52.812Z,1.1
2023-03-06T02:45:00.285Z,1
2023-03-06T02:46:10.277Z,1
2023-03-06T02:47:17.224Z,1.1
2023-03-06T02:48:24.179Z,1.1
2023-03-06T02:49:31.188Z,1.1
2023-03-06T02:50:44.288Z,1
2023-03-06T02:51:51.536Z,0.9
2023-03-06T02:52:59.739Z,1
2023-03-06T02:54:06.668Z,1
2023-03-06T02:55:13.659Z,1.1
2023-03-06T02:56:20.689Z,1.1
2023-03-06T02:57:28.561Z,1.1
2023-03-06T02:58:40.233Z,1.1
2023-03-06T02:59:47.545Z,1.1
2023-03-06T03:00:57.633Z,1.1
2023-03-06T03:02:04.619Z,1.1
2023-03-06T03:03:12.224Z,1.1
2023-03-06T03:04:19.646Z,1.2
2023-03-06T03:05:27.555Z,1.1
2023-03-06T03:06:38.660Z,1.1
2023-03-06T03:07:45.583Z,1.1
2023-03-06T03:08:52.683Z,1
2023-03-06T03:09:59.636Z,1
2023-03-06T03:11:07.374Z,1
2023-03-06T03:12:15.343Z,1
2023-03-06T03:13:22.296Z,0.9
2023-03-06T03:14:36.398Z,0.9
2023-03-06T03:15:43.456Z,0.8
2023-03-06T03:16:54.130Z,0.8
2023-03-06T03:18:02.062Z,0.7
2023-03-06T03:19:09.035Z,0.8
2023-03-06T03:20:17.839Z,0.7
2023-03-06T03:21:24.927Z,0.7
2023-03-06T03:22:31.914Z,0.7
2023-03-06T03:23:39.017Z,0.6
2023-03-06T03:24:51.613Z,0.6
2023-03-06T03:25:58.750Z,0.6
2023-03-06T03:27:08.716Z,0.5
2023-03-06T03:28:15.760Z,0.5
2023-03-06T03:29:22.730Z,0.5
2023-03-06T03:30:30.503Z,0.5
2023-03-06T03:31:37.511Z,0.5
2023-03-06T03:32:45.371Z,0.4
2023-03-06T03:33:55.403Z,0.4
2023-03-06T03:35:03.495Z,0.3
2023-03-06T03:36:11.220Z,0.3
2023-03-06T03:37:19.058Z,0.3
2023-03-06T03:38:27.239Z,0.3
2023-03-06T03:39:34.421Z,0.2
2023-03-06T03:40:46.360Z,0.3
2023-03-06T03:41:53.324Z,0.2
2023-03-06T03:43:00.400Z,0.2
2023-03-06T03:44:07.581Z,0.3
2023-03-06T03:45:14.734Z,0.3
2023-03-06T03:46:23.337Z,0.3
2023-03-06T03:47:30.477Z,0.4
2023-03-06T03:48:37.661Z,0.4
2023-03-06T03:49:47.543Z,0.4
2023-03-06T03:50:55.169Z,0.5
2023-03-06T03:52:10.924Z,0.5
2023-03-06T03:53:17.884Z,0.5
2023-03-06T03:54:24.787Z,0.5
2023-03-06T03:55:32.159Z,0.5
2023-03-06T03:56:39.060Z,0.5
2023-03-06T03:57:47.095Z,0.5
2023-03-06T03:58:54.138Z,0.5
2023-03-06T04:00:06.433Z,0.6
2023-03-06T04:01:15.159Z,0.5
2023-03-06T04:02:22.253Z,0.5
2023-03-06T04:03:31.189Z,0.6
2023-03-06T04:04:43.063Z,0.6
2023-03-06T04:05:50.013Z,0.6
2023-03-06T04:07:01.944Z,0.6
2023-03-06T04:08:08.936Z,0.6
2023-03-06T04:09:16.153Z,0.6
2023-03-06T04:10:23.213Z,0.6
2023-03-06T04:11:34.531Z,0.6
2023-03-06T04:12:44.838Z,0.6
2023-03-06T04:13:51.908Z,0.6
2023-03-06T04:14:59.793Z,0.6
2023-03-06T04:16:07.744Z,0.6
2023-03-06T04:17:19.603Z,0.6
2023-03-06T04:18:26.624Z,0.5
2023-03-06T04:19:34.776Z,0.5
2023-03-06T04:20:46.308Z,0.4
2023-03-06T04:21:53.608Z,0.3
2023-03-06T04:23:03.252Z,0.3
2023-03-06T04:24:10.304Z,0.2
2023-03-06T04:25:18.023Z,0.2
2023-03-06T04:26:25.045Z,0.3
2023-03-06T04:27:32.007Z,0.3
2023-03-06T04:28:43.174Z,0.2
2023-03-06T04:29:51.316Z,0.1
2023-03-06T04:30:58.366Z,0
2023-03-06T04:32:08.042Z,0
2023-03-06T04:33:14.894Z,0
2023-03-06T04:34:22.750Z,0
2023-03-06T04:35:30.784Z,-0.1
2023-03-06T04:36:37.773Z,-0.2
2023-03-06T04:37:44.756Z,0
2023-03-06T04:38:51.776Z,0.1
2023-03-06T04:39:58.696Z,0.1
2023-03-06T04:41:05.822Z,0.1
2023-03-06T04:42:13.615Z,0.1
2023-03-06T04:43:20.691Z,0.3
2023-03-06T04:44:29.770Z,0.4
2023-03-06T04:45:38.840Z,0.1
2023-03-06T04:46:45.761Z,0.2
2023-03-06T04:47:54.812Z,0.1
2023-03-06T04:49:02.385Z,0.1
2023-03-06T04:50:10.164Z,0.1
2023-03-06T04:51:18.182Z,0.1
2023-03-06T04:52:27.213Z,0
2023-03-06T04:53:34.140Z,0
2023-03-06T04:54:42.143Z,0
2023-03-06T04:55:49.292Z,0
2023-03-06T04:56:58.122Z,0
2023-03-06T04:58:05.863Z,0.1
2023-03-06T04:59:17.045Z,0
2023-03-06T05:00:23.957Z,0
2023-03-06T05:01:36.285Z,0.1
2023-03-06T05:02:45.675Z,0.1
2023-03-06T05:03:55.931Z,0.1
2023-03-06T05:05:03.902Z,0.1
2023-03-06T05:06:10.878Z,0.2
2023-03-06T05:07:17.813Z,0.1
2023-03-06T05:08:29.564Z,0.1
2023-03-06T05:09:39.299Z,0.1
2023-03-06T05:10:46.111Z,0.1
2023-03-06T05:11:58.153Z,0.1
2023-03-06T05:13:06.620Z,0.1
2023-03-06T05:14:13.707Z,0.1
2023-03-06T05:15:20.967Z,0.1
2023-03-06T05:16:27.928Z,0.2
2023-03-06T05:17:36.355Z,0.2
2023-03-06T05:18:43.312Z,0.2
2023-03-06T05:19:50.298Z,0.2
2023-03-06T05:20:57.370Z,0.1
2023-03-06T05:22:04.898Z,0.2
2023-03-06T05:23:11.883Z,0.1
2023-03-06T05:24:18.870Z,0.1
2023-03-06T05:25:25.919Z,0.1
2023-03-06T05:26:34.118Z,0
2023-03-06T05:27:44.938Z,0
2023-03-06T05:28:51.946Z,0.1
2023-03-06T05:29:59.124Z,0.2
2023-03-06T05:31:06.229Z,0.2
2023-03-06T05:32:13.407Z,0.2
2023-03-06T05:33:20.222Z,0.2
2023-03-06T05:34:27.385Z,0.1
2023-03-06T05:35:34.385Z,0.1
2023-03-06T05:36:41.495Z,0.1
2023-03-06T05:37:50.038Z,0.2
2023-03-06T05:38:58.629Z,0.3
2023-03-06T05:40:05.569Z,0.2
2023-03-06T05:41:12.878Z,0.2
2023-03-06T05:42:21.857Z,0.2
2023-03-06T05:43:28.998Z,0.3
2023-03-06T05:44:39.464Z,0.2
2023-03-06T05:45:46.433Z,0.2
2023-03-06T05:46:58.331Z,0.2
2023-03-06T05:48:05.789Z,0.2
2023-03-06T05:49:15.443Z,0.2
2023-03-06T05:50:25.551Z,0.2
2023-03-06T05:51:32.628Z,0.3
2023-03-06T05:52:41.351Z,0.3
2023-03-06T05:53:51.311Z,0.2
2023-03-06T05:54:58.312Z,0.2
2023-03-06T05:56:05.247Z,0.2
2023-03-06T05:57:15.722Z,0.2
2023-03-06T05:58:22.784Z,0.2
2023-03-06T05:59:30.533Z,0.3
2023-03-06T06:00:38.283Z,0.4
2023-03-06T06:01:45.182Z,0.3
2023-03-06T06:02:52.877Z,0.3
2023-03-06T06:03:59.793Z,0.3
2023-03-06T06:05:07.638Z,0.3
2023-03-06T06:06:14.664Z,0.4
2023-03-06T06:07:21.720Z,0.3
2023-03-06T06:08:31.399Z,0.4
2023-03-06T06:09:38.176Z,0.3
2023-03-06T06:10:45.000Z,0.4
2023-03-06T06:11:51.864Z,0.3
2023-03-06T06:13:02.222Z,0.5
2023-03-06T06:14:09.132Z,0.6
2023-03-06T06:15:15.936Z,0.6
2023-03-06T06:16:22.933Z,0.4
2023-03-06T06:17:29.822Z,0.5
2023-03-06T06:18:38.121Z,0.5
2023-03-06T06:19:44.260Z,0.4
2023-03-06T06:20:51.055Z,0.4
2023-03-06T06:21:57.898Z,0.5
2023-03-06T06:23:06.613Z,0.5
2023-03-06T06:24:14.901Z,0.5
2023-03-06T06:25:21.819Z,0.5
2023-03-06T06:26:29.688Z,0.5
2023-03-06T06:27:36.466Z,0.5
2023-03-06T06:28:43.976Z,0.5
2023-03-06T06:29:50.792Z,0.5
2023-03-06T06:30:57.603Z,0.5
2023-03-06T06:32:04.537Z,0.6
2023-03-06T06:33:12.288Z,0.6
2023-03-06T06:34:19.080Z,0.5
2023-03-06T06:35:25.978Z,0.6
2023-03-06T06:36:32.762Z,0.6
2023-03-06T06:37:39.645Z,0.6
2023-03-06T06:38:46.654Z,0.6
2023-03-06T06:39:53.403Z,0.6
2023-03-06T06:41:30.972Z,0.6
2023-03-06T06:42:28.478Z,0.6
2023-03-06T06:43:13.984Z,0.6
2023-03-06T06:44:20.861Z,0.7
2023-03-06T06:45:25.907Z,0.7
2023-03-06T06:47:18.058Z,0.7
2023-03-06T06:47:40.465Z,0.7
2023-03-06T06:48:47.384Z,0.8
2023-03-06T06:49:54.211Z,0.7
2023-03-06T06:51:01.074Z,0.8
2023-03-06T06:52:08.101Z,0.8
2023-03-06T06:53:14.899Z,0.8
2023-03-06T06:54:21.849Z,0.8
2023-03-06T06:55:28.748Z,0.8
2023-03-06T06:56:35.560Z,0.8
2023-03-06T06:57:42.384Z,0.7
2023-03-06T06:58:49.975Z,0.7
2023-03-06T06:59:59.552Z,0.8
2023-03-06T07:01:06.454Z,0.8
2023-03-06T07:02:13.330Z,1
2023-03-06T07:03:21.201Z,0.9
2023-03-06T07:04:28.024Z,0.8
2023-03-06T07:05:34.812Z,0.8
2023-03-06T07:06:41.610Z,0.9
2023-03-06T07:07:48.517Z,0.9
2023-03-06T07:08:56.606Z,1
2023-03-06T07:10:02.231Z,0.9
2023-03-06T07:11:09.184Z,1
2023-03-06T07:12:15.972Z,1.1
2023-03-06T07:13:22.850Z,0.9
2023-03-06T07:14:29.829Z,0.9
2023-03-06T07:15:36.881Z,1
2023-03-06T07:16:44.425Z,1
2023-03-06T07:17:51.403Z,1
2023-03-06T07:18:58.246Z,0.9
2023-03-06T07:20:05.080Z,1
2023-03-06T07:21:12.365Z,1.1
2023-03-06T07:22:19.200Z,1
2023-03-06T07:23:25.964Z,0.9
2023-03-06T07:24:32.819Z,1
2023-03-06T07:25:39.704Z,0.9
2023-03-06T07:26:46.620Z,1
2023-03-06T07:27:54.332Z,1.1
2023-03-06T07:29:00.285Z,1
2023-03-06T07:30:07.131Z,1.1
2023-03-06T07:31:14.381Z,1
2023-03-06T07:32:21.439Z,1.1
2023-03-06T07:33:28.245Z,1.1
2023-03-06T07:34:35.150Z,1.1
2023-03-06T07:35:43.226Z,1.1
2023-03-06T07:36:50.031Z,1.2
2023-03-06T07:37:56.973Z,1.2
2023-03-06T07:39:03.826Z,1.3
2023-03-06T07:40:10.746Z,1.3
2023-03-06T07:41:17.591Z,1.4
2023-03-06T07:42:24.480Z,1.4
2023-03-06T07:43:31.359Z,1.4
2023-03-06T07:44:38.263Z,1.4
2023-03-06T07:45:45.052Z,1.4
2023-03-06T07:46:51.989Z,1.4
2023-03-06T07:47:58.759Z,1.4
2023-03-06T07:49:05.621Z,1.5
2023-03-06T07:50:12.437Z,1.6
2023-03-06T07:51:19.498Z,1.6
2023-03-06T07:52:26.368Z,1.6
2023-03-06T07:53:33.279Z,1.6
2023-03-06T07:54:40.992Z,1.7
2023-03-06T07:55:47.828Z,1.7
2023-03-06T07:56:54.779Z,1.7
2023-03-06T07:58:01.558Z,1.9
2023-03-06T07:59:08.401Z,2
2023-03-06T08:00:19.917Z,2.2
2023-03-06T08:01:27.098Z,2.3
2023-03-06T08:02:34.061Z,2.2
2023-03-06T08:03:40.905Z,2.3
2023-03-06T08:04:47.652Z,2.4
2023-03-06T08:05:54.525Z,2.2
2023-03-06T08:07:09.071Z,2.3
2023-03-06T08:08:15.948Z,2.3
2023-03-06T08:09:22.783Z,2.3
2023-03-06T08:10:30.462Z,2.1
2023-03-06T08:11:37.375Z,2.1
2023-03-06T08:12:44.977Z,2.1
2023-03-06T08:13:51.880Z,2.3
2023-03-06T08:14:58.694Z,2.2
2023-03-06T08:16:05.558Z,2.2
2023-03-06T08:17:12.562Z,2.4
2023-03-06T08:18:19.378Z,2.4
2023-03-06T08:19:26.194Z,2.4
2023-03-06T08:20:33.978Z,2.4
2023-03-06T08:21:40.792Z,2.5
2023-03-06T08:22:47.728Z,2.5
2023-03-06T08:23:54.584Z,2.4
2023-03-06T08:25:01.400Z,2.5
2023-03-06T08:26:08.459Z,2.5
2023-03-06T08:27:15.280Z,2.5
2023-03-06T08:28:22.136Z,2.5
2023-03-06T08:29:31.521Z,2.4
2023-03-06T08:30:36.659Z,2.5
2023-03-06T08:31:43.539Z,2.7
2023-03-06T08:32:50.319Z,2.7
2023-03-06T08:33:57.365Z,2.6
2023-03-06T08:35:04.233Z,2.8
2023-03-06T08:36:11.215Z,2.8
2023-03-06T08:37:18.012Z,2.7
2023-03-06T08:38:24.766Z,2.6
2023-03-06T08:39:31.784Z,2.6
2023-03-06T08:40:39.456Z,2.6
2023-03-06T08:41:46.369Z,2.6
2023-03-06T08:42:53.200Z,2.6
2023-03-06T08:44:00.833Z,2.5
2023-03-06T08:45:07.955Z,2.6
2023-03-06T08:46:14.693Z,2.6
2023-03-06T08:47:22.396Z,2.6
2023-03-06T08:48:30.090Z,2.7
2023-03-06T08:49:36.886Z,2.9
2023-03-06T08:50:44.793Z,2.9
2023-03-06T08:51:51.636Z,2.8
2023-03-06T08:52:58.539Z,2.8
2023-03-06T08:54:05.387Z,3
2023-03-06T08:55:15.011Z,3
2023-03-06T08:56:19.778Z,3
2023-03-06T08:57:29.234Z,3
2023-03-06T08:58:36.257Z,3
2023-03-06T08:59:43.130Z,3
2023-03-06T09:00:50.079Z,3.2
2023-03-06T09:01:57.745Z,3.4
2023-03-06T09:03:04.442Z,3.3
2023-03-06T09:04:11.239Z,3.3
2023-03-06T09:05:18.113Z,3.3
2023-03-06T09:06:25.864Z,3.4
2023-03-06T09:07:32.829Z,3.7
2023-03-06T09:08:39.639Z,3.7
2023-03-06T09:09:46.508Z,3.7
2023-03-06T09:10:53.308Z,3.7
2023-03-06T09:12:01.062Z,3.9
2023-03-06T09:13:07.890Z,4
2023-03-06T09:14:14.698Z,4
2023-03-06T09:15:21.542Z,4
2023-03-06T09:16:28.488Z,4
2023-03-06T09:17:35.316Z,3.9
2023-03-06T09:18:42.161Z,3.9
2023-03-06T09:19:55.452Z,4
2023-03-06T09:21:02.292Z,4
2023-03-06T09:22:09.092Z,4.1
2023-03-06T09:23:16.022Z,4.3
2023-03-06T09:24:22.795Z,4.5
2023-03-06T09:25:29.756Z,4.4
2023-03-06T09:26:45.331Z,4.4
2023-03-06T09:27:43.542Z,4.6
2023-03-06T09:28:50.310Z,4.7
2023-03-06T09:29:57.158Z,4.7
2023-03-06T09:31:04.185Z,4.5
2023-03-06T09:32:13.932Z,4.4
2023-03-06T09:33:20.828Z,4.4
2023-03-06T09:34:28.587Z,4.4
2023-03-06T09:35:35.399Z,4.4
2023-03-06T09:36:56.374Z,4.6
2023-03-06T09:37:54.331Z,4.5
2023-03-06T09:39:01.148Z,4.7
2023-03-06T09:40:07.907Z,4.6
2023-03-06T09:41:20.735Z,4.7
2023-03-06T09:42:37.675Z,4.7
2023-03-06T09:43:44.593Z,4.5
2023-03-06T09:44:51.442Z,4.5
2023-03-06T09:45:58.335Z,4.6
2023-03-06T09:47:11.092Z,4.6
2023-03-06T09:48:25.912Z,4.7
2023-03-06T09:49:37.731Z,4.8
2023-03-06T09:50:52.524Z,4.8
2023-03-06T09:51:59.391Z,4.8
2023-03-06T09:53:10.383Z,5
2023-03-06T09:54:25.385Z,5
2023-03-06T09:55:33.045Z,5
2023-03-06T09:56:39.938Z,5
2023-03-06T09:57:46.975Z,5
2023-03-06T09:58:58.839Z,5.2
2023-03-06T10:00:08.240Z,5.3
2023-03-06T10:01:20.981Z,5.4
2023-03-06T10:02:27.877Z,5.3
2023-03-06T10:03:39.648Z,5
2023-03-06T10:04:51.624Z,5
2023-03-06T10:06:02.685Z,5.1
2023-03-06T10:07:08.173Z,5.3
2023-03-06T10:08:22.747Z,5.1
2023-03-06T10:09:34.645Z,4.8
2023-03-06T10:10:47.283Z,4.9
2023-03-06T10:11:54.117Z,5
2023-03-06T10:13:03.841Z,5
2023-03-06T10:14:15.676Z,5.1
2023-03-06T10:15:32.754Z,5
2023-03-06T10:16:39.510Z,4.9
2023-03-06T10:17:46.341Z,5
2023-03-06T10:18:53.194Z,5.1
2023-03-06T10:19:59.982Z,5.2
2023-03-06T10:21:18.938Z,5.4
2023-03-06T10:22:26.960Z,5.3
2023-03-06T10:23:33.750Z,5.3
2023-03-06T10:24:45.656Z,5.4
2023-03-06T10:25:57.705Z,5.5
2023-03-06T10:27:04.627Z,5.4
2023-03-06T10:28:19.137Z,5.4
2023-03-06T10:29:26.023Z,5.5
2023-03-06T10:30:40.515Z,5.6
2023-03-06T10:31:55.411Z,5.6
2023-03-06T10:33:07.325Z,5.6
2023-03-06T10:34:24.193Z,5.8
2023-03-06T10:35:33.723Z,6
2023-03-06T10:36:50.611Z,6.1
2023-03-06T10:37:57.379Z,6.1
2023-03-06T10:39:12.270Z,6
2023-03-06T10:40:19.047Z,6
2023-03-06T10:41:25.872Z,5.8
2023-03-06T10:42:32.628Z,5.8
2023-03-06T10:43:39.441Z,6
2023-03-06T10:44:46.410Z,6.1
2023-03-06T10:45:54.417Z,5.8
2023-03-06T10:47:01.216Z,5.6
2023-03-06T10:48:18.160Z,5.6
2023-03-06T10:49:25.144Z,5.7
2023-03-06T10:50:35.046Z,5.6
2023-03-06T10:51:41.771Z,5.6
2023-03-06T10:52:53.759Z,5.6
2023-03-06T10:54:06.099Z,5.5
2023-03-06T10:55:15.775Z,5.8
2023-03-06T10:56:28.900Z,5.9
2023-03-06T10:57:38.442Z,6
2023-03-06T10:58:45.206Z,6.1
2023-03-06T10:59:52.024Z,6.1
2023-03-06T11:01:03.927Z,6.2
2023-03-06T11:02:15.885Z,6.3
2023-03-06T11:03:28.512Z,6.4
2023-03-06T11:04:35.416Z,6.7
2023-03-06T11:05:42.124Z,6.8
2023-03-06T11:06:56.731Z,6.9
2023-03-06T11:08:08.734Z,6.7
2023-03-06T11:09:15.593Z,6.3
2023-03-06T11:10:25.254Z,6.3
2023-03-06T11:11:37.669Z,6.6
2023-03-06T11:12:38.953Z,6.8
2023-03-06T11:13:45.713Z,6.8
2023-03-06T11:14:52.563Z,6.8
2023-03-06T11:16:09.580Z,6.7
2023-03-06T11:17:26.546Z,6.7
2023-03-06T11:18:33.390Z,6.8
2023-03-06T11:19:40.201Z,6.8
2023-03-06T11:20:53.245Z,6.9
2023-03-06T11:21:53.858Z,6.9
2023-03-06T11:23:05.708Z,6.7
2023-03-06T11:24:22.762Z,6.9
2023-03-06T11:25:29.572Z,6.7
2023-03-06T11:26:36.483Z,6.8
2023-03-06T11:27:51.443Z,6.8
2023-03-06T11:29:06.231Z,6.8
2023-03-06T11:30:18.865Z,7
2023-03-06T11:31:25.743Z,6.9
2023-03-06T11:32:32.558Z,6.5
2023-03-06T11:33:39.488Z,6.7
2023-03-06T11:34:51.373Z,6.9
2023-03-06T11:36:00.815Z,6.9
2023-03-06T11:37:07.621Z,7.1
2023-03-06T11:38:14.446Z,7.1
2023-03-06T11:39:24.099Z,7.2
2023-03-06T11:40:35.945Z,7.1
2023-03-06T11:41:52.831Z,7.1
2023-03-06T11:43:02.448Z,7.1
2023-03-06T11:44:09.374Z,6.9
2023-03-06T11:45:21.794Z,7
2023-03-06T11:46:32.838Z,7
2023-03-06T11:47:42.617Z,7
2023-03-06T11:48:49.554Z,6.8
2023-03-06T11:50:01.428Z,6.9
2023-03-06T11:51:11.339Z,6.9
2023-03-06T11:52:18.191Z,6.7
2023-03-06T11:53:24.977Z,6.9
2023-03-06T11:54:36.947Z,6.6
2023-03-06T11:55:43.799Z,6.6
2023-03-06T11:56:55.763Z,6.6
2023-03-06T11:58:05.442Z,6.5
2023-03-06T11:59:17.361Z,6.5
2023-03-06T12:00:34.285Z,6.6
2023-03-06T12:01:49.070Z,6.5
2023-03-06T12:03:06.068Z,6.4
2023-03-06T12:04:23.038Z,6.2
2023-03-06T12:05:34.902Z,6.3
2023-03-06T12:06:44.569Z,6.3
2023-03-06T12:07:54.437Z,6.2
2023-03-06T12:09:09.105Z,6.3
2023-03-06T12:10:16.894Z,6.6
2023-03-06T12:11:23.606Z,6.8
2023-03-06T12:12:30.518Z,6.7
2023-03-06T12:13:42.444Z,6.9
2023-03-06T12:15:00.669Z,7
2023-03-06T12:16:12.361Z,6.7
2023-03-06T12:17:27.221Z,6.9
2023-03-06T12:18:44.360Z,6.9
2023-03-06T12:19:54.904Z,6.8
2023-03-06T12:21:11.832Z,6.8
2023-03-06T12:22:18.701Z,6.9
2023-03-06T12:23:37.483Z,7
2023-03-06T12:24:53.192Z,6.9
2023-03-06T12:26:10.139Z,6.8
2023-03-06T12:27:21.990Z,6.7
2023-03-06T12:28:33.885Z,6.9
2023-03-06T12:29:50.854Z,6.8
2023-03-06T12:31:07.823Z,6.7
2023-03-06T12:32:14.861Z,6.9
2023-03-06T12:33:27.279Z,6.9
2023-03-06T12:34:39.979Z,6.9
2023-03-06T12:35:54.712Z,6.8
2023-03-06T12:37:06.510Z,6.9
2023-03-06T12:38:21.533Z,6.7
2023-03-06T12:39:38.571Z,6.7
2023-03-06T12:40:51.275Z,6.6
2023-03-06T12:42:08.874Z,6.4
2023-03-06T12:43:22.859Z,6.3
2023-03-06T12:44:39.847Z,6.4
2023-03-06T12:45:51.831Z,6.3
2023-03-06T12:47:01.459Z,6.3
2023-03-06T12:48:08.235Z,6.4
2023-03-06T12:49:31.738Z,6.2
2023-03-06T12:50:32.806Z,6.3
2023-03-06T12:51:39.974Z,6.3
2023-03-06T12:52:46.873Z,6.3
2023-03-06T12:53:53.701Z,6.3
2023-03-06T12:55:00.532Z,6.4
2023-03-06T12:56:07.672Z,6.3
2023-03-06T12:57:15.346Z,6.3
2023-03-06T12:58:22.342Z,6.2
2023-03-06T12:59:32.178Z,6
2023-03-06T13:00:41.792Z,6.1
2023-03-06T13:01:58.736Z,6.2
2023-03-06T13:03:09.155Z,6.1
2023-03-06T13:04:21.010Z,5.9
2023-03-06T13:05:30.552Z,6
2023-03-06T13:06:50.549Z,6.1
2023-03-06T13:08:02.183Z,6.1
2023-03-06T13:09:19.144Z,6.3
2023-03-06T13:10:31.032Z,6.1
2023-03-06T13:11:37.828Z,6.2
2023-03-06T13:12:50.518Z,6.2
2023-03-06T13:14:03.040Z,6.1
2023-03-06T13:15:19.945Z,6
2023-03-06T13:16:36.956Z,5.8
2023-03-06T13:17:43.889Z,5.7
2023-03-06T13:18:50.732Z,5.7
2023-03-06T13:20:07.764Z,5.8
2023-03-06T13:21:17.329Z,5.8
2023-03-06T13:22:34.293Z,5.9
2023-03-06T13:23:43.805Z,5.8
2023-03-06T13:24:55.001Z,5.7
2023-03-06T13:26:09.288Z,5.7
2023-03-06T13:27:26.358Z,5.6
2023-03-06T13:28:43.333Z,5.7
2023-03-06T13:29:53.004Z,5.8
2023-03-06T13:31:15.342Z,5.5
2023-03-06T13:32:17.380Z,5.3
2023-03-06T13:33:25.328Z,5.4
2023-03-06T13:34:37.512Z,5.2
2023-03-06T13:35:45.252Z,5.1
2023-03-06T13:36:57.175Z,5.1
2023-03-06T13:38:14.532Z,5.1
2023-03-06T13:39:31.459Z,5.2
2023-03-06T13:40:38.474Z,5.2
2023-03-06T13:41:45.313Z,5
2023-03-06T13:42:57.240Z,5
2023-03-06T13:44:07.399Z,5
2023-03-06T13:45:24.298Z,4.8
2023-03-06T13:46:37.246Z,5
2023-03-06T13:48:06.701Z,5
2023-03-06T13:48:51.906Z,4.8
2023-03-06T13:50:07.919Z,4.6
2023-03-06T13:51:19.794Z,4.8
2023-03-06T13:52:26.659Z,4.8
2023-03-06T13:53:41.318Z,4.6
2023-03-06T13:54:58.334Z,4.4
2023-03-06T13:56:15.250Z,4.3
2023-03-06T13:57:29.829Z,4.3
2023-03-06T13:58:41.764Z,4.2
2023-03-06T14:00:08.487Z,4.2
2023-03-06T14:01:21.682Z,4.2
2023-03-06T14:02:34.289Z,4.3
2023-03-06T14:03:49.268Z,4.2
2023-03-06T14:05:06.207Z,4.2
2023-03-06T14:06:15.745Z,4.2
2023-03-06T14:07:33.519Z,4.3
2023-03-06T14:08:42.208Z,4.4
2023-03-06T14:09:49.055Z,4.5
2023-03-06T14:11:06.076Z,4.3
2023-03-06T14:12:17.965Z,4.2
2023-03-06T14:13:32.274Z,4.4
2023-03-06T14:14:40.066Z,4.5
2023-03-06T14:15:47.001Z,4.6
2023-03-06T14:16:53.783Z,4.7
2023-03-06T14:18:00.674Z,4.7
2023-03-06T14:19:15.495Z,4.5
2023-03-06T14:20:22.312Z,4.5
2023-03-06T14:21:29.178Z,4.4
2023-03-06T14:22:36.052Z,4.5
2023-03-06T14:23:43.786Z,4.5
2023-03-06T14:24:50.622Z,4.4
2023-03-06T14:26:00.555Z,4.5
2023-03-06T14:27:17.482Z,4.1
2023-03-06T14:28:24.458Z,4
2023-03-06T14:29:31.269Z,4.1
2023-03-06T14:30:38.249Z,4
2023-03-06T14:31:45.036Z,3.9
2023-03-06T14:32:51.905Z,3.9
2023-03-06T14:33:58.743Z,3.9
2023-03-06T14:35:05.608Z,4.1
2023-03-06T14:36:17.507Z,4.1
2023-03-06T14:37:24.434Z,4
2023-03-06T14:38:31.210Z,4.1
2023-03-06T14:39:40.652Z,3.9
2023-03-06T14:40:47.694Z,4.1
2023-03-06T14:41:54.575Z,4.1
2023-03-06T14:43:09.406Z,4.3
2023-03-06T14:44:21.615Z,4.3
2023-03-06T14:45:29.165Z,4.4
2023-03-06T14:46:36.079Z,4.5
2023-03-06T14:47:42.866Z,4.5
2023-03-06T14:48:52.828Z,4.1
2023-03-06T14:50:00.609Z,4.3
2023-03-06T14:51:17.701Z,4.5
2023-03-06T14:52:24.509Z,4.5
2023-03-06T14:53:31.357Z,4.5
2023-03-06T14:54:39.061Z,4.3
2023-03-06T14:55:45.873Z,4
2023-03-06T14:57:00.705Z,4.1
2023-03-06T14:58:10.515Z,4
2023-03-06T14:59:18.244Z,4
2023-03-06T15:00:25.207Z,4.2
2023-03-06T15:01:36.608Z,4.1
2023-03-06T15:02:43.602Z,4
2023-03-06T15:03:50.501Z,4
2023-03-06T15:04:58.323Z,3.9
2023-03-06T15:06:05.168Z,4
2023-03-06T15:07:13.001Z,4
2023-03-06T15:08:19.870Z,4.1
2023-03-06T15:09:26.711Z,4
2023-03-06T15:10:35.288Z,4
2023-03-06T15:11:42.170Z,3.9
2023-03-06T15:12:54.222Z,3.9
2023-03-06T15:14:12.097Z,3.9
2023-03-06T15:15:21.700Z,4.1
2023-03-06T15:16:30.661Z,4.1
2023-03-06T15:17:37.053Z,4.1
2023-03-06T15:18:46.997Z,4.1
2023-03-06T15:19:58.875Z,4.1
2023-03-06T15:21:05.707Z,4
2023-03-06T15:22:17.515Z,3.8
2023-03-06T15:23:34.617Z,3.9
2023-03-06T15:24:41.440Z,3.8
2023-03-06T15:25:48.389Z,3.9
2023-03-06T15:26:55.286Z,3.9
2023-03-06T15:28:04.897Z,3.8
2023-03-06T15:29:22.106Z,3.9
2023-03-06T15:30:29.756Z,3.8
2023-03-06T15:31:36.737Z,3.8
2023-03-06T15:32:43.510Z,3.9
2023-03-06T15:33:50.371Z,4
2023-03-06T15:35:02.367Z,4
2023-03-06T15:36:19.427Z,3.9
2023-03-06T15:37:27.137Z,3.8
2023-03-06T15:38:33.917Z,3.9
2023-03-06T15:39:40.787Z,3.8
2023-03-06T15:40:48.502Z,3.8
2023-03-06T15:41:59.188Z,3.8
2023-03-06T15:43:16.263Z,3.9
2023-03-06T15:44:23.043Z,4
2023-03-06T15:45:30.709Z,3.9
2023-03-06T15:46:38.403Z,4
2023-03-06T15:47:45.243Z,4
2023-03-06T15:48:52.989Z,3.9
2023-03-06T15:50:04.169Z,4
2023-03-06T15:51:18.904Z,4.1
2023-03-06T15:52:25.606Z,4.1
2023-03-06T15:53:32.485Z,4
2023-03-06T15:54:39.354Z,4
2023-03-06T15:55:46.237Z,4
2023-03-06T15:56:53.147Z,4
2023-03-06T15:58:00.867Z,4
2023-03-06T15:59:08.243Z,4